Kenosha Regional Airport
KENW : now visible

Airfield :











YOU CAN JOIN US ON...

 
LOGIN :

Register | Disclaimer

   EN    FR    IT 

 









Legend :    VFR   Marginal VFR   IFR   Intensive IFR   Very Intensive IFR
Visi :
Ceiling :
>= 8 km
>= 3000ft
5 to 8 km
1000 to 3000 ft
1500m to 5 km
500 to 1000 ft
800 to 1500m
200 to 500 ft
< 800m
< 200 ft
Symbols :   Thunderstorms  Fog  Heavy snow  Heavy precipitations  Wind > 20 kt






- Airport Elevation : 742 ft


KENW - Kenosha Regional

CURRENT METAR :
  • 010513Z AUTO 32012G20KT 10SM OVC029 M02/M09 A3000 RMK AO2 T10171089

EXPIRED METARs :
  • 010453Z AUTO 32009G17KT 10SM OVC030 M02/M09 A3000 RMK AO2 SLP168 T10171089
  • 010353Z AUTO 33009G20KT 10SM OVC030 M01/M09 A3000 RMK AO2 SLP169 T10111089
  • 010253Z 33013G22KT 10SM OVC031 M01/M09 A3001 RMK AO2 SLP173 T10111089 58002

TAF KENW
Valid from the 01 at 06:00 until the 02 at 06:00 UTC


010520Z 0106/0206 32009G17KT P6SM OVC029
FM010900 33011KT P6SM SCT035
FM011500 32011KT P6SM FEW200
KZAU FIR / North America



MET'MAP, your aeronautical weather chart ! - Copyright ORBIFLY December 2007 - Disclaimer

ORBIFLY MET'MAP TEAM :

Programming & Development : Alexandra Zaïnal
Concept & original design : Baudouin d'Aumeries
Assistance for programming : Marc-Olivier Méhu
Technical & hardware support : Manuel Goepfert

Contact : metmap@orbifly.com




SOURCES & CREDITS :

   NOAA       Earth
Advisory